sensor_id;sensor_type;location;lat;lon;timestamp;P1;durP1;ratioP1;P2;durP2;ratioP2
45842;SDS011;31563;51.744;8.252;2023-06-19T00:00:43;7.45;;;6.75;;
45842;SDS011;31563;51.744;8.252;2023-06-19T00:03:12;8.13;;;7.30;;
45842;SDS011;31563;51.744;8.252;2023-06-19T00:05:41;7.75;;;7.05;;
45842;SDS011;31563;51.744;8.252;2023-06-19T00:10:38;7.35;;;6.75;;
45842;SDS011;31563;51.744;8.252;2023-06-19T00:13:06;7.32;;;6.72;;
45842;SDS011;31563;51.744;8.252;2023-06-19T00:15:34;7.75;;;6.95;;
45842;SDS011;31563;51.744;8.252;2023-06-19T00:18:02;7.55;;;7.00;;
45842;SDS011;31563;51.744;8.252;2023-06-19T00:20:33;7.32;;;6.78;;
45842;SDS011;31563;51.744;8.252;2023-06-19T00:23:04;8.13;;;7.43;;
45842;SDS011;31563;51.744;8.252;2023-06-19T00:25:37;7.38;;;6.72;;
45842;SDS011;31563;51.744;8.252;2023-06-19T00:28:05;7.95;;;7.25;;
45842;SDS011;31563;51.744;8.252;2023-06-19T00:30:39;7.70;;;7.10;;
45842;SDS011;31563;51.744;8.252;2023-06-19T00:33:08;8.00;;;7.30;;
45842;SDS011;31563;51.744;8.252;2023-06-19T00:35:36;8.75;;;7.30;;
45842;SDS011;31563;51.744;8.252;2023-06-19T00:38:07;8.20;;;7.50;;
45842;SDS011;31563;51.744;8.252;2023-06-19T00:40:35;7.90;;;7.20;;
45842;SDS011;31563;51.744;8.252;2023-06-19T00:43:06;7.38;;;6.68;;
45842;SDS011;31563;51.744;8.252;2023-06-19T00:45:34;7.63;;;6.93;;
45842;SDS011;31563;51.744;8.252;2023-06-19T00:48:03;7.88;;;7.18;;
45842;SDS011;31563;51.744;8.252;2023-06-19T00:50:32;8.07;;;7.45;;
45842;SDS011;31563;51.744;8.252;2023-06-19T00:53:01;7.85;;;7.22;;
45842;SDS011;31563;51.744;8.252;2023-06-19T00:55:32;8.52;;;7.28;;
45842;SDS011;31563;51.744;8.252;2023-06-19T00:58:01;7.80;;;7.20;;
45842;SDS011;31563;51.744;8.252;2023-06-19T01:00:30;8.47;;;7.37;;
45842;SDS011;31563;51.744;8.252;2023-06-19T01:02:58;7.18;;;6.68;;
45842;SDS011;31563;51.744;8.252;2023-06-19T01:05:27;8.55;;;7.40;;
45842;SDS011;31563;51.744;8.252;2023-06-19T01:07:57;7.40;;;6.80;;
45842;SDS011;31563;51.744;8.252;2023-06-19T01:10:29;7.75;;;7.15;;
45842;SDS011;31563;51.744;8.252;2023-06-19T01:13:04;7.63;;;7.03;;
45842;SDS011;31563;51.744;8.252;2023-06-19T01:15:38;6.85;;;6.25;;
45842;SDS011;31563;51.744;8.252;2023-06-19T01:18:07;7.70;;;7.00;;
45842;SDS011;31563;51.744;8.252;2023-06-19T01:20:38;7.43;;;6.82;;
45842;SDS011;31563;51.744;8.252;2023-06-19T01:23:08;7.63;;;7.00;;
45842;SDS011;31563;51.744;8.252;2023-06-19T01:25:37;7.22;;;6.72;;
45842;SDS011;31563;51.744;8.252;2023-06-19T01:31:41;7.68;;;7.07;;
45842;SDS011;31563;51.744;8.252;2023-06-19T01:34:13;7.40;;;6.70;;
45842;SDS011;31563;51.744;8.252;2023-06-19T01:36:45;7.55;;;6.90;;
45842;SDS011;31563;51.744;8.252;2023-06-19T01:39:16;7.63;;;6.93;;
45842;SDS011;31563;51.744;8.252;2023-06-19T01:41:47;7.72;;;6.75;;
45842;SDS011;31563;51.744;8.252;2023-06-19T01:44:16;7.50;;;6.90;;
45842;SDS011;31563;51.744;8.252;2023-06-19T01:46:46;7.47;;;6.63;;
45842;SDS011;31563;51.744;8.252;2023-06-19T01:49:15;6.97;;;6.38;;
45842;SDS011;31563;51.744;8.252;2023-06-19T01:51:44;6.85;;;6.25;;
45842;SDS011;31563;51.744;8.252;2023-06-19T01:54:12;6.97;;;6.35;;
45842;SDS011;31563;51.744;8.252;2023-06-19T01:56:42;7.10;;;6.50;;
45842;SDS011;31563;51.744;8.252;2023-06-19T01:59:10;6.43;;;5.93;;
45842;SDS011;31563;51.744;8.252;2023-06-19T02:01:39;6.80;;;6.13;;
45842;SDS011;31563;51.744;8.252;2023-06-19T02:04:07;7.20;;;6.50;;
45842;SDS011;31563;51.744;8.252;2023-06-19T02:06:35;6.95;;;6.35;;
45842;SDS011;31563;51.744;8.252;2023-06-19T02:09:03;6.32;;;5.82;;
45842;SDS011;31563;51.744;8.252;2023-06-19T02:11:32;6.63;;;6.13;;
45842;SDS011;31563;51.744;8.252;2023-06-19T02:14:01;6.70;;;6.10;;
45842;SDS011;31563;51.744;8.252;2023-06-19T02:18:57;7.13;;;6.50;;
45842;SDS011;31563;51.744;8.252;2023-06-19T02:21:26;6.93;;;6.33;;
45842;SDS011;31563;51.744;8.252;2023-06-19T02:23:55;7.17;;;6.47;;
45842;SDS011;31563;51.744;8.252;2023-06-19T02:26:24;6.60;;;5.93;;
45842;SDS011;31563;51.744;8.252;2023-06-19T02:28:55;7.10;;;6.40;;
45842;SDS011;31563;51.744;8.252;2023-06-19T02:31:25;7.53;;;6.68;;
45842;SDS011;31563;51.744;8.252;2023-06-19T02:36:21;7.28;;;6.65;;
45842;SDS011;31563;51.744;8.252;2023-06-19T02:38:49;6.00;;;5.50;;
45842;SDS011;31563;51.744;8.252;2023-06-19T02:41:17;6.50;;;5.90;;
45842;SDS011;31563;51.744;8.252;2023-06-19T02:43:46;6.30;;;5.80;;
45842;SDS011;31563;51.744;8.252;2023-06-19T02:46:15;6.88;;;6.28;;
45842;SDS011;31563;51.744;8.252;2023-06-19T02:48:44;6.40;;;5.90;;
45842;SDS011;31563;51.744;8.252;2023-06-19T02:53:41;7.18;;;6.10;;
45842;SDS011;31563;51.744;8.252;2023-06-19T02:56:10;7.18;;;5.95;;
45842;SDS011;31563;51.744;8.252;2023-06-19T02:58:39;6.50;;;6.00;;
45842;SDS011;31563;51.744;8.252;2023-06-19T03:01:08;6.60;;;6.05;;
45842;SDS011;31563;51.744;8.252;2023-06-19T03:03:36;6.40;;;5.90;;
45842;SDS011;31563;51.744;8.252;2023-06-19T03:06:06;6.68;;;6.07;;
45842;SDS011;31563;51.744;8.252;2023-06-19T03:08:35;6.15;;;5.65;;
45842;SDS011;31563;51.744;8.252;2023-06-19T03:11:03;6.60;;;6.05;;
45842;SDS011;31563;51.744;8.252;2023-06-19T03:13:33;6.40;;;5.85;;
45842;SDS011;31563;51.744;8.252;2023-06-19T03:16:11;6.40;;;5.90;;
45842;SDS011;31563;51.744;8.252;2023-06-19T03:18:39;6.80;;;6.20;;
45842;SDS011;31563;51.744;8.252;2023-06-19T03:21:09;6.97;;;6.35;;
45842;SDS011;31563;51.744;8.252;2023-06-19T03:26:05;6.30;;;5.80;;
45842;SDS011;31563;51.744;8.252;2023-06-19T03:28:33;6.07;;;5.63;;
45842;SDS011;31563;51.744;8.252;2023-06-19T03:31:01;6.95;;;6.35;;
45842;SDS011;31563;51.744;8.252;2023-06-19T03:33:30;6.60;;;5.95;;
45842;SDS011;31563;51.744;8.252;2023-06-19T03:35:58;6.57;;;5.97;;
45842;SDS011;31563;51.744;8.252;2023-06-19T03:38:28;6.55;;;6.00;;
45842;SDS011;31563;51.744;8.252;2023-06-19T03:40:56;6.65;;;6.05;;
45842;SDS011;31563;51.744;8.252;2023-06-19T03:43:24;6.35;;;5.85;;
45842;SDS011;31563;51.744;8.252;2023-06-19T03:45:52;6.38;;;5.88;;
45842;SDS011;31563;51.744;8.252;2023-06-19T03:48:20;7.22;;;6.65;;
45842;SDS011;31563;51.744;8.252;2023-06-19T03:50:49;7.13;;;6.53;;
45842;SDS011;31563;51.744;8.252;2023-06-19T03:53:17;7.00;;;6.32;;
45842;SDS011;31563;51.744;8.252;2023-06-19T03:55:46;6.70;;;6.10;;
45842;SDS011;31563;51.744;8.252;2023-06-19T04:00:43;7.00;;;6.30;;
45842;SDS011;31563;51.744;8.252;2023-06-19T04:03:11;6.93;;;6.32;;
45842;SDS011;31563;51.744;8.252;2023-06-19T04:05:39;7.32;;;6.55;;
45842;SDS011;31563;51.744;8.252;2023-06-19T04:08:08;7.40;;;6.70;;
45842;SDS011;31563;51.744;8.252;2023-06-19T04:10:36;7.13;;;6.53;;
45842;SDS011;31563;51.744;8.252;2023-06-19T04:13:06;7.18;;;6.47;;
45842;SDS011;31563;51.744;8.252;2023-06-19T04:18:04;6.55;;;5.82;;
45842;SDS011;31563;51.744;8.252;2023-06-19T04:20:32;7.03;;;5.97;;
45842;SDS011;31563;51.744;8.252;2023-06-19T04:23:00;6.60;;;6.00;;
45842;SDS011;31563;51.744;8.252;2023-06-19T04:25:29;6.50;;;6.00;;
45842;SDS011;31563;51.744;8.252;2023-06-19T04:27:57;6.63;;;6.03;;
45842;SDS011;31563;51.744;8.252;2023-06-19T04:30:26;6.85;;;6.30;;
45842;SDS011;31563;51.744;8.252;2023-06-19T04:32:55;6.95;;;6.25;;
45842;SDS011;31563;51.744;8.252;2023-06-19T04:35:23;6.25;;;5.75;;
45842;SDS011;31563;51.744;8.252;2023-06-19T04:37:52;7.13;;;6.38;;
45842;SDS011;31563;51.744;8.252;2023-06-19T04:40:21;7.05;;;6.35;;
45842;SDS011;31563;51.744;8.252;2023-06-19T04:42:50;6.75;;;6.10;;
45842;SDS011;31563;51.744;8.252;2023-06-19T04:45:20;6.32;;;5.72;;
45842;SDS011;31563;51.744;8.252;2023-06-19T04:47:49;6.35;;;5.75;;
45842;SDS011;31563;51.744;8.252;2023-06-19T04:50:19;6.15;;;5.65;;
45842;SDS011;31563;51.744;8.252;2023-06-19T04:52:49;6.43;;;5.45;;
45842;SDS011;31563;51.744;8.252;2023-06-19T04:55:18;7.75;;;5.63;;
45842;SDS011;31563;51.744;8.252;2023-06-19T04:57:46;5.88;;;5.38;;
45842;SDS011;31563;51.744;8.252;2023-06-19T05:00:15;7.60;;;5.72;;
45842;SDS011;31563;51.744;8.252;2023-06-19T05:02:46;7.13;;;5.30;;
45842;SDS011;31563;51.744;8.252;2023-06-19T05:05:16;5.65;;;5.15;;
45842;SDS011;31563;51.744;8.252;2023-06-19T05:07:48;6.25;;;5.75;;
45842;SDS011;31563;51.744;8.252;2023-06-19T05:10:17;5.88;;;5.35;;
45842;SDS011;31563;51.744;8.252;2023-06-19T05:12:45;6.40;;;5.80;;
45842;SDS011;31563;51.744;8.252;2023-06-19T05:15:14;10.20;;;6.25;;
45842;SDS011;31563;51.744;8.252;2023-06-19T05:17:42;5.80;;;5.20;;
45842;SDS011;31563;51.744;8.252;2023-06-19T05:20:13;6.43;;;5.28;;
45842;SDS011;31563;51.744;8.252;2023-06-19T05:22:43;5.30;;;4.80;;
45842;SDS011;31563;51.744;8.252;2023-06-19T05:25:11;5.38;;;4.63;;
45842;SDS011;31563;51.744;8.252;2023-06-19T05:27:39;4.70;;;4.40;;
45842;SDS011;31563;51.744;8.252;2023-06-19T05:30:08;7.97;;;4.63;;
45842;SDS011;31563;51.744;8.252;2023-06-19T05:32:37;6.65;;;4.80;;
45842;SDS011;31563;51.744;8.252;2023-06-19T05:35:05;4.60;;;4.20;;
45842;SDS011;31563;51.744;8.252;2023-06-19T05:37:34;5.60;;;3.80;;
45842;SDS011;31563;51.744;8.252;2023-06-19T05:40:06;9.98;;;5.00;;
45842;SDS011;31563;51.744;8.252;2023-06-19T05:42:36;5.80;;;4.25;;
45842;SDS011;31563;51.744;8.252;2023-06-19T05:45:04;5.63;;;3.90;;
45842;SDS011;31563;51.744;8.252;2023-06-19T05:47:33;5.68;;;3.75;;
45842;SDS011;31563;51.744;8.252;2023-06-19T05:50:01;4.43;;;4.03;;
45842;SDS011;31563;51.744;8.252;2023-06-19T05:52:30;4.20;;;3.80;;
45842;SDS011;31563;51.744;8.252;2023-06-19T05:54:59;4.57;;;3.42;;
45842;SDS011;31563;51.744;8.252;2023-06-19T05:57:28;4.10;;;3.50;;
45842;SDS011;31563;51.744;8.252;2023-06-19T06:02:24;6.90;;;3.05;;
45842;SDS011;31563;51.744;8.252;2023-06-19T06:04:55;5.97;;;3.22;;
45842;SDS011;31563;51.744;8.252;2023-06-19T06:07:23;5.00;;;2.50;;
45842;SDS011;31563;51.744;8.252;2023-06-19T06:09:54;5.20;;;3.00;;
45842;SDS011;31563;51.744;8.252;2023-06-19T06:12:22;5.55;;;3.42;;
45842;SDS011;31563;51.744;8.252;2023-06-19T06:14:51;15.98;;;4.20;;
45842;SDS011;31563;51.744;8.252;2023-06-19T06:19:48;6.35;;;3.78;;
45842;SDS011;31563;51.744;8.252;2023-06-19T06:22:16;5.28;;;3.42;;
45842;SDS011;31563;51.744;8.252;2023-06-19T06:24:44;5.75;;;3.28;;
45842;SDS011;31563;51.744;8.252;2023-06-19T06:27:13;3.38;;;3.08;;
45842;SDS011;31563;51.744;8.252;2023-06-19T06:29:41;8.45;;;3.30;;
45842;SDS011;31563;51.744;8.252;2023-06-19T06:32:11;11.82;;;3.17;;
45842;SDS011;31563;51.744;8.252;2023-06-19T06:37:07;4.35;;;3.13;;
45842;SDS011;31563;51.744;8.252;2023-06-19T06:39:35;4.93;;;3.08;;
45842;SDS011;31563;51.744;8.252;2023-06-19T06:42:05;2.75;;;2.53;;
45842;SDS011;31563;51.744;8.252;2023-06-19T06:44:33;3.17;;;2.92;;
45842;SDS011;31563;51.744;8.252;2023-06-19T06:47:03;7.90;;;2.97;;
45842;SDS011;31563;51.744;8.252;2023-06-19T06:49:32;4.35;;;2.70;;
45842;SDS011;31563;51.744;8.252;2023-06-19T06:52:02;4.45;;;2.60;;
45842;SDS011;31563;51.744;8.252;2023-06-19T06:54:31;7.13;;;3.42;;
45842;SDS011;31563;51.744;8.252;2023-06-19T06:56:59;10.35;;;3.10;;
45842;SDS011;31563;51.744;8.252;2023-06-19T06:59:27;7.10;;;3.33;;
45842;SDS011;31563;51.744;8.252;2023-06-19T07:01:56;6.82;;;3.35;;
45842;SDS011;31563;51.744;8.252;2023-06-19T07:04:24;13.52;;;3.83;;
45842;SDS011;31563;51.744;8.252;2023-06-19T07:06:54;11.23;;;2.85;;
45842;SDS011;31563;51.744;8.252;2023-06-19T07:09:22;6.07;;;2.80;;
45842;SDS011;31563;51.744;8.252;2023-06-19T07:11:50;5.07;;;1.90;;
45842;SDS011;31563;51.744;8.252;2023-06-19T07:14:19;5.30;;;2.03;;
45842;SDS011;31563;51.744;8.252;2023-06-19T07:16:48;13.23;;;2.63;;
45842;SDS011;31563;51.744;8.252;2023-06-19T07:19:17;8.90;;;1.70;;
45842;SDS011;31563;51.744;8.252;2023-06-19T07:21:45;2.85;;;1.25;;
45842;SDS011;31563;51.744;8.252;2023-06-19T07:24:15;1.35;;;0.82;;
45842;SDS011;31563;51.744;8.252;2023-06-19T07:26:43;4.05;;;1.15;;
45842;SDS011;31563;51.744;8.252;2023-06-19T07:29:13;3.55;;;1.00;;
45842;SDS011;31563;51.744;8.252;2023-06-19T07:31:41;2.17;;;0.90;;
45842;SDS011;31563;51.744;8.252;2023-06-19T07:34:10;3.65;;;1.48;;
45842;SDS011;31563;51.744;8.252;2023-06-19T07:36:38;5.25;;;1.52;;
45842;SDS011;31563;51.744;8.252;2023-06-19T07:39:06;11.20;;;2.13;;
45842;SDS011;31563;51.744;8.252;2023-06-19T07:41:36;8.80;;;2.00;;
45842;SDS011;31563;51.744;8.252;2023-06-19T07:44:04;9.80;;;2.25;;
45842;SDS011;31563;51.744;8.252;2023-06-19T07:46:33;7.25;;;1.95;;
45842;SDS011;31563;51.744;8.252;2023-06-19T07:49:01;5.10;;;1.58;;
45842;SDS011;31563;51.744;8.252;2023-06-19T07:51:29;6.72;;;1.77;;
45842;SDS011;31563;51.744;8.252;2023-06-19T07:53:58;4.75;;;1.65;;
45842;SDS011;31563;51.744;8.252;2023-06-19T07:56:26;8.68;;;1.77;;
45842;SDS011;31563;51.744;8.252;2023-06-19T07:58:56;8.37;;;1.73;;
45842;SDS011;31563;51.744;8.252;2023-06-19T08:01:24;6.47;;;1.65;;
45842;SDS011;31563;51.744;8.252;2023-06-19T08:03:52;5.00;;;1.40;;
45842;SDS011;31563;51.744;8.252;2023-06-19T08:06:20;7.30;;;1.52;;
45842;SDS011;31563;51.744;8.252;2023-06-19T08:08:49;8.50;;;1.77;;
45842;SDS011;31563;51.744;8.252;2023-06-19T08:13:45;3.28;;;1.20;;
45842;SDS011;31563;51.744;8.252;2023-06-19T08:16:15;4.35;;;1.38;;
45842;SDS011;31563;51.744;8.252;2023-06-19T08:18:44;1.77;;;1.50;;
45842;SDS011;31563;51.744;8.252;2023-06-19T08:21:13;4.55;;;1.77;;
45842;SDS011;31563;51.744;8.252;2023-06-19T08:23:41;2.50;;;1.20;;
45842;SDS011;31563;51.744;8.252;2023-06-19T08:26:10;2.72;;;1.38;;
45842;SDS011;31563;51.744;8.252;2023-06-19T08:28:38;3.20;;;1.05;;
45842;SDS011;31563;51.744;8.252;2023-06-19T08:31:08;3.13;;;1.20;;
45842;SDS011;31563;51.744;8.252;2023-06-19T08:33:37;2.17;;;1.30;;
45842;SDS011;31563;51.744;8.252;2023-06-19T08:36:06;4.88;;;1.73;;
45842;SDS011;31563;51.744;8.252;2023-06-19T08:38:34;5.57;;;1.52;;
45842;SDS011;31563;51.744;8.252;2023-06-19T08:41:02;3.70;;;1.20;;
45842;SDS011;31563;51.744;8.252;2023-06-19T08:43:31;4.33;;;1.50;;
45842;SDS011;31563;51.744;8.252;2023-06-19T08:46:02;1.20;;;0.95;;
45842;SDS011;31563;51.744;8.252;2023-06-19T08:48:38;4.88;;;1.38;;
45842;SDS011;31563;51.744;8.252;2023-06-19T08:51:07;3.00;;;1.17;;
45842;SDS011;31563;51.744;8.252;2023-06-19T08:53:43;4.45;;;1.13;;
45842;SDS011;31563;51.744;8.252;2023-06-19T08:56:13;2.13;;;1.42;;
45842;SDS011;31563;51.744;8.252;2023-06-19T08:58:41;1.98;;;1.17;;
45842;SDS011;31563;51.744;8.252;2023-06-19T09:01:09;3.03;;;1.30;;
45842;SDS011;31563;51.744;8.252;2023-06-19T09:03:41;3.22;;;1.50;;
45842;SDS011;31563;51.744;8.252;2023-06-19T09:06:10;4.40;;;1.30;;
45842;SDS011;31563;51.744;8.252;2023-06-19T09:08:41;3.05;;;0.98;;
45842;SDS011;31563;51.744;8.252;2023-06-19T09:11:10;2.63;;;1.58;;
45842;SDS011;31563;51.744;8.252;2023-06-19T09:16:07;2.78;;;1.95;;
45842;SDS011;31563;51.744;8.252;2023-06-19T09:18:44;3.03;;;1.57;;
45842;SDS011;31563;51.744;8.252;2023-06-19T09:21:16;2.30;;;1.25;;
45842;SDS011;31563;51.744;8.252;2023-06-19T09:23:45;1.73;;;1.33;;
45842;SDS011;31563;51.744;8.252;2023-06-19T09:26:14;1.27;;;0.83;;
45842;SDS011;31563;51.744;8.252;2023-06-19T09:28:44;1.83;;;1.23;;
45842;SDS011;31563;51.744;8.252;2023-06-19T09:31:12;2.35;;;1.30;;
45842;SDS011;31563;51.744;8.252;2023-06-19T09:33:40;1.98;;;1.27;;
45842;SDS011;31563;51.744;8.252;2023-06-19T09:36:11;3.78;;;1.35;;
45842;SDS011;31563;51.744;8.252;2023-06-19T09:38:40;3.85;;;1.50;;
45842;SDS011;31563;51.744;8.252;2023-06-19T09:41:08;2.75;;;1.40;;
45842;SDS011;31563;51.744;8.252;2023-06-19T09:43:37;3.97;;;1.37;;
45842;SDS011;31563;51.744;8.252;2023-06-19T09:46:08;1.70;;;1.10;;
45842;SDS011;31563;51.744;8.252;2023-06-19T09:48:40;1.50;;;1.20;;
45842;SDS011;31563;51.744;8.252;2023-06-19T09:51:17;6.70;;;1.52;;
45842;SDS011;31563;51.744;8.252;2023-06-19T09:53:47;2.38;;;1.25;;
45842;SDS011;31563;51.744;8.252;2023-06-19T09:58:49;4.35;;;1.30;;
45842;SDS011;31563;51.744;8.252;2023-06-19T10:01:19;1.40;;;1.20;;
45842;SDS011;31563;51.744;8.252;2023-06-19T10:03:48;2.90;;;1.13;;
45842;SDS011;31563;51.744;8.252;2023-06-19T10:06:18;4.05;;;1.30;;
45842;SDS011;31563;51.744;8.252;2023-06-19T10:08:50;5.00;;;1.30;;
45842;SDS011;31563;51.744;8.252;2023-06-19T10:11:18;1.30;;;1.20;;
45842;SDS011;31563;51.744;8.252;2023-06-19T10:13:47;2.08;;;1.20;;
45842;SDS011;31563;51.744;8.252;2023-06-19T10:16:21;1.70;;;1.20;;
45842;SDS011;31563;51.744;8.252;2023-06-19T10:18:54;1.05;;;0.77;;
45842;SDS011;31563;51.744;8.252;2023-06-19T10:21:24;2.08;;;1.15;;
45842;SDS011;31563;51.744;8.252;2023-06-19T10:23:55;1.45;;;1.23;;
45842;SDS011;31563;51.744;8.252;2023-06-19T10:26:31;2.25;;;1.17;;
45842;SDS011;31563;51.744;8.252;2023-06-19T10:29:00;3.30;;;1.38;;
45842;SDS011;31563;51.744;8.252;2023-06-19T10:31:30;2.53;;;1.17;;
45842;SDS011;31563;51.744;8.252;2023-06-19T10:33:58;6.90;;;2.10;;
45842;SDS011;31563;51.744;8.252;2023-06-19T10:36:28;8.57;;;1.90;;
45842;SDS011;31563;51.744;8.252;2023-06-19T10:38:56;20.60;;;3.90;;
45842;SDS011;31563;51.744;8.252;2023-06-19T10:41:25;38.22;;;6.43;;
45842;SDS011;31563;51.744;8.252;2023-06-19T10:43:54;30.05;;;4.93;;
45842;SDS011;31563;51.744;8.252;2023-06-19T10:46:24;5.75;;;1.80;;
45842;SDS011;31563;51.744;8.252;2023-06-19T10:48:58;5.50;;;1.35;;
45842;SDS011;31563;51.744;8.252;2023-06-19T10:51:29;9.55;;;2.28;;
45842;SDS011;31563;51.744;8.252;2023-06-19T10:53:58;3.38;;;1.63;;
45842;SDS011;31563;51.744;8.252;2023-06-19T10:56:26;10.98;;;2.47;;
45842;SDS011;31563;51.744;8.252;2023-06-19T10:58:58;8.60;;;2.03;;
45842;SDS011;31563;51.744;8.252;2023-06-19T11:01:34;15.38;;;4.43;;
45842;SDS011;31563;51.744;8.252;2023-06-19T11:04:04;6.80;;;1.90;;
45842;SDS011;31563;51.744;8.252;2023-06-19T11:06:35;15.35;;;1.83;;
45842;SDS011;31563;51.744;8.252;2023-06-19T11:09:04;3.50;;;1.23;;
45842;SDS011;31563;51.744;8.252;2023-06-19T11:11:35;7.63;;;1.33;;
45842;SDS011;31563;51.744;8.252;2023-06-19T11:14:04;33.22;;;7.28;;
45842;SDS011;31563;51.744;8.252;2023-06-19T11:16:33;29.23;;;4.97;;
45842;SDS011;31563;51.744;8.252;2023-06-19T11:19:01;14.32;;;3.00;;
45842;SDS011;31563;51.744;8.252;2023-06-19T11:21:31;15.73;;;3.90;;
45842;SDS011;31563;51.744;8.252;2023-06-19T11:24:05;13.57;;;3.95;;
45842;SDS011;31563;51.744;8.252;2023-06-19T11:26:38;12.85;;;2.78;;
45842;SDS011;31563;51.744;8.252;2023-06-19T11:29:13;20.27;;;5.32;;
45842;SDS011;31563;51.744;8.252;2023-06-19T11:31:42;32.67;;;6.30;;
45842;SDS011;31563;51.744;8.252;2023-06-19T11:34:11;33.90;;;6.95;;
45842;SDS011;31563;51.744;8.252;2023-06-19T11:36:39;26.88;;;5.38;;
45842;SDS011;31563;51.744;8.252;2023-06-19T11:39:10;31.53;;;5.83;;
45842;SDS011;31563;51.744;8.252;2023-06-19T11:41:40;24.75;;;5.18;;
45842;SDS011;31563;51.744;8.252;2023-06-19T11:44:10;17.85;;;4.68;;
45842;SDS011;31563;51.744;8.252;2023-06-19T11:46:39;18.88;;;3.75;;
45842;SDS011;31563;51.744;8.252;2023-06-19T11:49:07;20.17;;;3.75;;
45842;SDS011;31563;51.744;8.252;2023-06-19T11:51:36;13.70;;;3.47;;
45842;SDS011;31563;51.744;8.252;2023-06-19T11:54:05;12.27;;;3.63;;
45842;SDS011;31563;51.744;8.252;2023-06-19T11:56:37;9.00;;;3.13;;
45842;SDS011;31563;51.744;8.252;2023-06-19T11:59:06;8.05;;;3.35;;
45842;SDS011;31563;51.744;8.252;2023-06-19T12:01:35;8.20;;;2.73;;
45842;SDS011;31563;51.744;8.252;2023-06-19T12:04:05;10.68;;;3.15;;
45842;SDS011;31563;51.744;8.252;2023-06-19T12:06:34;11.73;;;2.83;;
45842;SDS011;31563;51.744;8.252;2023-06-19T12:09:03;13.07;;;3.20;;
45842;SDS011;31563;51.744;8.252;2023-06-19T12:11:32;11.85;;;3.13;;
45842;SDS011;31563;51.744;8.252;2023-06-19T12:14:02;12.38;;;3.55;;
45842;SDS011;31563;51.744;8.252;2023-06-19T12:16:30;12.20;;;2.50;;
45842;SDS011;31563;51.744;8.252;2023-06-19T12:18:58;8.68;;;3.28;;
45842;SDS011;31563;51.744;8.252;2023-06-19T12:21:26;10.95;;;2.75;;
45842;SDS011;31563;51.744;8.252;2023-06-19T12:24:04;10.27;;;2.80;;
45842;SDS011;31563;51.744;8.252;2023-06-19T12:26:33;7.00;;;2.72;;
45842;SDS011;31563;51.744;8.252;2023-06-19T12:29:05;10.50;;;3.50;;
45842;SDS011;31563;51.744;8.252;2023-06-19T12:31:34;11.93;;;2.85;;
45842;SDS011;31563;51.744;8.252;2023-06-19T12:34:03;9.30;;;2.80;;
45842;SDS011;31563;51.744;8.252;2023-06-19T12:36:35;7.22;;;2.67;;
45842;SDS011;31563;51.744;8.252;2023-06-19T12:39:04;12.47;;;3.00;;
45842;SDS011;31563;51.744;8.252;2023-06-19T12:41:41;15.35;;;4.10;;
45842;SDS011;31563;51.744;8.252;2023-06-19T12:44:10;20.70;;;4.43;;
45842;SDS011;31563;51.744;8.252;2023-06-19T12:46:39;15.93;;;4.55;;
45842;SDS011;31563;51.744;8.252;2023-06-19T12:49:07;27.27;;;5.63;;
45842;SDS011;31563;51.744;8.252;2023-06-19T12:51:35;17.95;;;5.00;;
45842;SDS011;31563;51.744;8.252;2023-06-19T12:54:03;16.42;;;4.50;;
45842;SDS011;31563;51.744;8.252;2023-06-19T12:56:32;13.52;;;3.90;;
45842;SDS011;31563;51.744;8.252;2023-06-19T12:59:00;11.82;;;3.60;;
45842;SDS011;31563;51.744;8.252;2023-06-19T13:01:29;11.43;;;3.10;;
45842;SDS011;31563;51.744;8.252;2023-06-19T13:03:58;10.15;;;3.00;;
45842;SDS011;31563;51.744;8.252;2023-06-19T13:06:26;10.00;;;3.42;;
45842;SDS011;31563;51.744;8.252;2023-06-19T13:08:55;6.07;;;2.42;;
45842;SDS011;31563;51.744;8.252;2023-06-19T13:11:23;6.43;;;2.20;;
45842;SDS011;31563;51.744;8.252;2023-06-19T13:13:51;4.82;;;2.20;;
45842;SDS011;31563;51.744;8.252;2023-06-19T13:16:19;9.88;;;2.58;;
45842;SDS011;31563;51.744;8.252;2023-06-19T13:19:09;4.53;;;2.10;;
45842;SDS011;31563;51.744;8.252;2023-06-19T13:21:37;4.72;;;2.40;;
45842;SDS011;31563;51.744;8.252;2023-06-19T13:24:06;2.80;;;2.27;;
45842;SDS011;31563;51.744;8.252;2023-06-19T13:26:34;6.32;;;2.45;;
45842;SDS011;31563;51.744;8.252;2023-06-19T13:29:03;7.05;;;2.15;;
45842;SDS011;31563;51.744;8.252;2023-06-19T13:31:31;5.28;;;2.33;;
45842;SDS011;31563;51.744;8.252;2023-06-19T13:34:00;4.10;;;1.92;;
45842;SDS011;31563;51.744;8.252;2023-06-19T13:36:29;6.38;;;2.20;;
45842;SDS011;31563;51.744;8.252;2023-06-19T13:38:58;5.20;;;2.58;;
45842;SDS011;31563;51.744;8.252;2023-06-19T13:41:26;3.75;;;2.28;;
45842;SDS011;31563;51.744;8.252;2023-06-19T13:43:57;4.93;;;2.15;;
45842;SDS011;31563;51.744;8.252;2023-06-19T13:46:25;5.93;;;2.30;;
45842;SDS011;31563;51.744;8.252;2023-06-19T13:48:54;3.80;;;2.20;;
45842;SDS011;31563;51.744;8.252;2023-06-19T13:51:22;5.53;;;2.42;;
45842;SDS011;31563;51.744;8.252;2023-06-19T13:53:52;3.50;;;2.17;;
45842;SDS011;31563;51.744;8.252;2023-06-19T13:56:21;6.80;;;2.33;;
45842;SDS011;31563;51.744;8.252;2023-06-19T13:58:50;6.82;;;2.17;;
45842;SDS011;31563;51.744;8.252;2023-06-19T14:01:18;5.17;;;2.20;;
45842;SDS011;31563;51.744;8.252;2023-06-19T14:03:47;5.45;;;2.22;;
45842;SDS011;31563;51.744;8.252;2023-06-19T14:06:15;4.47;;;2.50;;
45842;SDS011;31563;51.744;8.252;2023-06-19T14:08:43;7.78;;;2.33;;
45842;SDS011;31563;51.744;8.252;2023-06-19T14:11:13;6.45;;;2.50;;
45842;SDS011;31563;51.744;8.252;2023-06-19T14:13:41;3.83;;;1.90;;
45842;SDS011;31563;51.744;8.252;2023-06-19T14:16:09;5.03;;;2.25;;
45842;SDS011;31563;51.744;8.252;2023-06-19T14:18:37;5.17;;;2.20;;
45842;SDS011;31563;51.744;8.252;2023-06-19T14:21:05;2.40;;;1.88;;
45842;SDS011;31563;51.744;8.252;2023-06-19T14:23:34;5.27;;;2.17;;
45842;SDS011;31563;51.744;8.252;2023-06-19T14:26:06;3.45;;;2.08;;
45842;SDS011;31563;51.744;8.252;2023-06-19T14:28:37;3.27;;;1.77;;
45842;SDS011;31563;51.744;8.252;2023-06-19T14:31:05;4.55;;;2.03;;
45842;SDS011;31563;51.744;8.252;2023-06-19T14:33:34;3.23;;;1.87;;
45842;SDS011;31563;51.744;8.252;2023-06-19T14:36:03;4.75;;;1.95;;
45842;SDS011;31563;51.744;8.252;2023-06-19T14:38:32;5.43;;;2.13;;
45842;SDS011;31563;51.744;8.252;2023-06-19T14:41:01;3.47;;;2.20;;
45842;SDS011;31563;51.744;8.252;2023-06-19T14:43:29;5.40;;;1.63;;
45842;SDS011;31563;51.744;8.252;2023-06-19T14:46:01;1.98;;;1.55;;
45842;SDS011;31563;51.744;8.252;2023-06-19T14:48:30;2.72;;;1.70;;
45842;SDS011;31563;51.744;8.252;2023-06-19T14:51:00;2.17;;;1.93;;
45842;SDS011;31563;51.744;8.252;2023-06-19T14:53:28;3.58;;;2.00;;
45842;SDS011;31563;51.744;8.252;2023-06-19T14:55:56;3.20;;;2.10;;
45842;SDS011;31563;51.744;8.252;2023-06-19T14:58:24;4.07;;;1.90;;
45842;SDS011;31563;51.744;8.252;2023-06-19T15:00:55;4.90;;;1.90;;
45842;SDS011;31563;51.744;8.252;2023-06-19T15:03:26;3.85;;;1.88;;
45842;SDS011;31563;51.744;8.252;2023-06-19T15:05:54;2.67;;;2.20;;
45842;SDS011;31563;51.744;8.252;2023-06-19T15:08:22;3.47;;;1.80;;
45842;SDS011;31563;51.744;8.252;2023-06-19T15:10:50;3.80;;;2.40;;
45842;SDS011;31563;51.744;8.252;2023-06-19T15:13:19;5.37;;;2.27;;
45842;SDS011;31563;51.744;8.252;2023-06-19T15:15:47;3.00;;;1.90;;
45842;SDS011;31563;51.744;8.252;2023-06-19T15:18:17;4.55;;;2.10;;
45842;SDS011;31563;51.744;8.252;2023-06-19T15:20:47;3.83;;;1.98;;
45842;SDS011;31563;51.744;8.252;2023-06-19T15:23:15;5.82;;;2.10;;
45842;SDS011;31563;51.744;8.252;2023-06-19T15:25:43;2.77;;;2.00;;
45842;SDS011;31563;51.744;8.252;2023-06-19T15:28:12;2.30;;;2.00;;
45842;SDS011;31563;51.744;8.252;2023-06-19T15:30:40;2.07;;;1.90;;
45842;SDS011;31563;51.744;8.252;2023-06-19T15:33:08;2.43;;;2.00;;